This is the latest recevied weather packets stored in our database for station/object WE1C. If no packets are shown the sender has not sent any weather packets the latest 10 day(s).
| Time | Temp. | Humidity | Pressure | Rain* | Wind** | Luminosity | Snow |
|---|---|---|---|---|---|---|---|
| 1777656936 | 14.44° C | 42% | 1038.5 hPa | 0 mm | - | 275 W/m² | - |
| 1777656633 | 15° C | 45% | 1038.7 hPa | 0 mm | - | 238 W/m² | - |
| 1777656328 | 13.89° C | 45% | 1038.3 hPa | 0 mm | - | 838 W/m² | - |
| 1777656024 | 14.44° C | 43% | 1038.4 hPa | 0 mm | - | 747 W/m² | - |
| 1777655720 | 15° C | 42% | 1038.5 hPa | 0 mm | - | 885 W/m² | - |
| 1777655417 | 14.44° C | 43% | 1038.7 hPa | 0 mm | - | 854 W/m² | - |
| 1777655114 | 14.44° C | 43% | 1038.8 hPa | 0 mm | - | 841 W/m² | - |
| 1777654811 | 13.89° C | 46% | 1038.8 hPa | 0 mm | - | 789 W/m² | - |
| 1777654509 | 13.89° C | 46% | 1038.8 hPa | 0 mm | - | 780 W/m² | - |
| 1777654206 | 13.33° C | 52% | 1038.7 hPa | 0 mm | - | 840 W/m² | - |
| 1777653904 | 13.33° C | 50% | 1038.8 hPa | 0 mm | - | 140 W/m² | - |
| 1777653600 | 13.89° C | 47% | 1038.8 hPa | 0 mm | - | 213 W/m² | - |
| 1777653297 | 13.33° C | 52% | 1038.8 hPa | 0 mm | - | 846 W/m² | - |
| 1777652993 | 12.78° C | 48% | 1039 hPa | 0 mm | - | 808 W/m² | - |
| 1777652689 | 13.33° C | 47% | 1038.8 hPa | 0 mm | - | 478 W/m² | - |
| 1777652387 | 13.89° C | 45% | 1039 hPa | 0 mm | - | 811 W/m² | - |
| 1777652084 | 12.22° C | 49% | 1039 hPa | 0 mm | - | 867 W/m² | - |
| 1777651780 | 12.78° C | 48% | 1039.2 hPa | 0 mm | - | 987 W/m² | - |
| 1777651477 | 13.33° C | 46% | 1039.1 hPa | 0 mm | - | 984 W/m² | - |
| 1777651175 | 13.33° C | 45% | 1039.3 hPa | 0 mm | - | 909 W/m² | - |
| 1777650871 | 12.78° C | 49% | 1039.2 hPa | 0 mm | - | 878 W/m² | - |
| 1777650568 | 12.78° C | 47% | 1039.5 hPa | 0 mm | - | 817 W/m² | - |
| 1777650265 | 11.67° C | 54% | 1039.2 hPa | 0 mm | - | 513 W/m² | - |
| 1777649962 | 11.67° C | 50% | 1039.4 hPa | 0 mm | - | 849 W/m² | - |
| 1777649660 | 12.22° C | 50% | 1039.2 hPa | 0 mm | - | 949 W/m² | - |
* Rain latest hour (hover to see other rain measurements)
** Current wind speed in m/s (hover to see current wind gust speed)